createdAt,value
2019-02-20T00:02:11.789Z,78.49
2019-02-20T00:04:52.439Z,78.96
2019-02-20T00:07:23.779Z,78.05
2019-02-20T00:09:55.109Z,79.00
2019-02-20T00:12:26.485Z,79.26
2019-02-20T00:14:57.728Z,79.36
2019-02-20T00:17:29.070Z,79.52
2019-02-20T00:20:00.409Z,79.24
2019-02-20T00:22:40.038Z,79.70
2019-02-20T00:25:06.505Z,79.86
2019-02-20T00:27:37.904Z,80.12
2019-02-20T00:30:11.290Z,79.63
2019-02-20T00:32:42.644Z,80.76
2019-02-20T00:35:14.118Z,80.51
2019-02-20T00:37:45.386Z,80.80
2019-02-20T00:40:16.642Z,80.85
2019-02-20T00:42:48.165Z,81.33
2019-02-20T00:45:29.406Z,81.68
2019-02-20T00:48:02.355Z,81.18
2019-02-20T00:50:35.280Z,81.76
2019-02-20T00:53:14.375Z,81.51
2019-02-20T00:55:45.708Z,80.70
2019-02-20T00:58:17.009Z,80.62
2019-02-20T01:00:48.416Z,80.60
2019-02-20T01:03:20.586Z,81.08
2019-02-20T01:05:51.933Z,81.65
2019-02-20T01:08:23.325Z,81.62
2019-02-20T01:11:00.460Z,82.09
2019-02-20T01:13:32.213Z,81.48
2019-02-20T01:16:03.789Z,80.94
2019-02-20T01:18:35.183Z,81.26
2019-02-20T01:21:06.857Z,80.73
2019-02-20T01:23:38.191Z,81.01
2019-02-20T01:26:09.585Z,80.70
2019-02-20T01:28:40.981Z,81.48
2019-02-20T01:31:12.294Z,80.71
2019-02-20T01:33:43.635Z,80.83
2019-02-20T01:36:15.024Z,81.16
2019-02-20T01:38:46.298Z,81.98
2019-02-20T01:41:17.689Z,81.87
2019-02-20T01:43:49.110Z,82.94
2019-02-20T01:46:20.516Z,82.67
2019-02-20T01:48:51.830Z,82.94
2019-02-20T01:51:23.220Z,82.14
2019-02-20T01:53:54.486Z,81.52
2019-02-20T01:56:26.879Z,81.57
2019-02-20T01:58:58.234Z,83.35
2019-02-20T02:01:29.560Z,82.53
2019-02-20T02:04:02.319Z,82.91
2019-02-20T02:06:34.883Z,83.06
2019-02-20T02:09:07.859Z,82.53
2019-02-20T02:11:40.033Z,82.41
2019-02-20T02:14:11.447Z,82.62
2019-02-20T02:16:42.846Z,83.13
2019-02-20T02:19:18.027Z,83.36
2019-02-20T02:21:49.334Z,83.71
2019-02-20T02:24:20.814Z,83.05
2019-02-20T02:26:52.340Z,83.39
2019-02-20T02:29:23.776Z,83.37
2019-02-20T02:31:55.110Z,83.92
2019-02-20T02:34:26.473Z,84.86
2019-02-20T02:36:57.749Z,85.55
2019-02-20T02:39:29.043Z,85.92
2019-02-20T02:42:00.314Z,85.89
2019-02-20T02:44:31.841Z,86.26
2019-02-20T02:47:03.169Z,86.62
2019-02-20T02:49:35.505Z,86.61
2019-02-20T02:52:06.806Z,86.46
2019-02-20T02:54:38.287Z,86.58
2019-02-20T02:57:09.731Z,86.70
2019-02-20T02:59:41.149Z,86.58
2019-02-20T03:02:12.562Z,86.56
2019-02-20T03:04:44.788Z,86.44
2019-02-20T03:07:16.236Z,85.97
2019-02-20T03:09:47.534Z,85.83
2019-02-20T03:12:18.982Z,84.92
2019-02-20T03:14:50.663Z,84.92
2019-02-20T03:17:21.970Z,84.51
2019-02-20T03:19:53.414Z,84.13
2019-02-20T03:22:25.027Z,83.85
2019-02-20T03:24:59.586Z,84.76
2019-02-20T03:27:30.984Z,84.97
2019-02-20T03:30:18.654Z,85.04
2019-02-20T03:32:50.274Z,84.81
2019-02-20T03:35:22.691Z,85.23
2019-02-20T03:37:54.182Z,85.14
2019-02-20T03:40:25.624Z,84.91
2019-02-20T03:42:56.923Z,84.53
2019-02-20T03:45:28.359Z,84.93
2019-02-20T03:47:59.622Z,84.86
2019-02-20T03:50:31.034Z,84.97
2019-02-20T03:53:02.454Z,84.49
2019-02-20T03:55:33.790Z,82.84
2019-02-20T03:58:05.111Z,83.41
2019-02-20T04:00:36.580Z,83.49
2019-02-20T04:03:10.292Z,83.52
2019-02-20T04:05:42.329Z,83.05
2019-02-20T04:08:13.696Z,83.26
2019-02-20T04:10:45.320Z,83.33
2019-02-20T04:13:16.572Z,83.94
2019-02-20T04:15:49.973Z,83.81
2019-02-20T04:18:21.584Z,83.53
2019-02-20T04:20:52.989Z,82.55
2019-02-20T04:23:24.416Z,83.00
2019-02-20T04:25:55.880Z,83.10
2019-02-20T04:28:27.556Z,82.80
2019-02-20T04:30:59.264Z,83.31
2019-02-20T04:33:30.676Z,83.45
2019-02-20T04:36:02.402Z,83.01
2019-02-20T04:38:33.985Z,82.69
2019-02-20T04:41:05.689Z,81.35
2019-02-20T04:43:37.159Z,80.82
2019-02-20T04:46:08.673Z,80.66
2019-02-20T04:48:40.210Z,80.69
2019-02-20T04:51:11.505Z,81.19
2019-02-20T04:53:43.004Z,82.61
2019-02-20T04:56:14.427Z,83.17
2019-02-20T04:58:47.456Z,82.11
2019-02-20T05:01:20.167Z,82.02
2019-02-20T05:03:52.771Z,82.00
2019-02-20T05:06:24.107Z,82.53
2019-02-20T05:08:55.467Z,83.11
2019-02-20T05:11:26.929Z,82.42
2019-02-20T05:13:58.412Z,82.36
2019-02-20T05:16:30.307Z,82.58
2019-02-20T05:19:01.849Z,82.39
2019-02-20T05:21:33.469Z,81.47
2019-02-20T05:24:05.124Z,82.58
2019-02-20T05:26:36.672Z,82.82
2019-02-20T05:29:08.139Z,82.97
2019-02-20T05:31:45.108Z,82.23
2019-02-20T05:34:24.346Z,80.94
2019-02-20T05:36:55.624Z,81.63
2019-02-20T05:39:27.256Z,82.60
2019-02-20T05:41:58.593Z,82.71
2019-02-20T05:44:29.986Z,82.23
2019-02-20T05:47:01.421Z,82.19
2019-02-20T05:49:32.764Z,82.55
2019-02-20T05:52:04.193Z,82.43
2019-02-20T05:54:35.629Z,82.15
2019-02-20T05:57:06.907Z,82.29
2019-02-20T05:59:38.299Z,81.61
2019-02-20T06:02:09.650Z,82.19
2019-02-20T06:04:41.002Z,82.51
2019-02-20T06:07:12.377Z,82.80
2019-02-20T06:09:44.795Z,83.18
2019-02-20T06:12:16.535Z,83.83
2019-02-20T06:14:48.187Z,84.00
2019-02-20T06:17:19.613Z,84.47
2019-02-20T06:19:51.013Z,85.05
2019-02-20T06:22:22.346Z,85.41
2019-02-20T06:24:53.693Z,85.62
2019-02-20T06:27:24.987Z,85.86
2019-02-20T06:29:56.380Z,86.14
2019-02-20T06:32:27.723Z,86.41
2019-02-20T06:34:59.028Z,86.25
2019-02-20T06:37:30.316Z,86.27
2019-02-20T06:40:01.669Z,86.38
2019-02-20T06:42:33.100Z,85.96
2019-02-20T06:45:06.770Z,85.94
2019-02-20T06:47:38.151Z,85.91
2019-02-20T06:50:09.909Z,85.84
2019-02-20T06:52:41.174Z,85.76
2019-02-20T06:55:13.463Z,85.95
2019-02-20T06:57:44.735Z,86.47
2019-02-20T07:00:16.290Z,86.24
2019-02-20T07:02:47.640Z,86.42
2019-02-20T07:05:32.648Z,86.36
2019-02-20T07:08:40.212Z,86.15
2019-02-20T07:11:37.540Z,86.08
2019-02-20T07:14:41.042Z,86.25
2019-02-20T07:17:25.940Z,85.97
2019-02-20T07:20:16.315Z,86.08
2019-02-20T07:23:22.447Z,85.98
2019-02-20T07:26:33.022Z,86.15
2019-02-20T07:29:20.434Z,86.56
2019-02-20T07:31:51.823Z,86.64
2019-02-20T07:34:24.320Z,86.57
2019-02-20T07:36:55.644Z,86.47
2019-02-20T07:39:26.960Z,86.42
2019-02-20T07:41:58.272Z,86.54
2019-02-20T07:44:29.678Z,86.75
2019-02-20T07:47:00.991Z,86.62
2019-02-20T07:49:32.325Z,86.50
2019-02-20T07:52:03.655Z,86.53
2019-02-20T07:54:35.007Z,86.71
2019-02-20T07:57:06.481Z,86.73
2019-02-20T07:59:37.752Z,86.84
2019-02-20T08:02:09.259Z,87.00
2019-02-20T08:04:40.585Z,87.23
2019-02-20T08:07:11.908Z,87.37
2019-02-20T08:09:43.344Z,87.54
2019-02-20T08:12:14.737Z,87.55
2019-02-20T08:14:46.176Z,87.62
2019-02-20T08:17:17.553Z,87.69
2019-02-20T08:19:48.982Z,87.68
2019-02-20T08:22:20.345Z,87.58
2019-02-20T08:24:51.657Z,87.62
2019-02-20T08:27:23.013Z,87.35
2019-02-20T08:29:54.356Z,87.01
2019-02-20T08:32:25.724Z,86.79
2019-02-20T08:34:56.999Z,86.69
2019-02-20T08:37:28.312Z,86.53
2019-02-20T08:39:59.566Z,86.23
2019-02-20T08:42:30.955Z,86.05
2019-02-20T08:45:02.303Z,86.08
2019-02-20T08:47:33.683Z,86.22
2019-02-20T08:50:10.455Z,86.05
2019-02-20T08:52:42.004Z,86.15
2019-02-20T08:55:13.451Z,85.27
2019-02-20T08:57:44.867Z,84.96
2019-02-20T09:00:16.516Z,84.90
2019-02-20T09:02:47.949Z,84.81
2019-02-20T09:05:19.358Z,84.61
2019-02-20T09:07:50.617Z,84.65
2019-02-20T09:10:23.339Z,84.37
2019-02-20T09:12:54.666Z,84.11
2019-02-20T09:15:27.816Z,84.09
2019-02-20T09:17:59.066Z,83.77
2019-02-20T09:20:30.448Z,83.47
2019-02-20T09:23:01.701Z,83.62
2019-02-20T09:25:41.312Z,83.89
2019-02-20T09:28:06.100Z,83.34
2019-02-20T09:30:37.535Z,83.36
2019-02-20T09:33:08.889Z,83.08
2019-02-20T09:35:40.214Z,83.06
2019-02-20T09:38:11.540Z,83.28
2019-02-20T09:40:42.884Z,82.93
2019-02-20T09:43:14.198Z,82.43
2019-02-20T09:45:45.550Z,82.45
2019-02-20T09:48:16.950Z,82.49
2019-02-20T09:50:49.417Z,81.87
2019-02-20T09:53:20.689Z,81.38
2019-02-20T09:55:52.117Z,81.05
2019-02-20T09:58:23.538Z,81.48
2019-02-20T10:00:54.930Z,81.13
2019-02-20T10:03:26.276Z,80.41
2019-02-20T10:05:57.681Z,80.16
2019-02-20T10:08:30.123Z,80.75
2019-02-20T10:11:01.407Z,79.08
2019-02-20T10:13:32.924Z,78.17
2019-02-20T10:16:04.212Z,77.87
2019-02-20T10:18:35.623Z,77.67
2019-02-20T10:21:07.025Z,77.43
2019-02-20T10:23:38.294Z,77.15
2019-02-20T10:26:09.600Z,76.87
2019-02-20T10:28:41.908Z,76.54
2019-02-20T10:31:13.245Z,76.50
2019-02-20T10:33:44.647Z,76.12
2019-02-20T10:36:16.144Z,75.79
2019-02-20T10:38:47.394Z,74.76
2019-02-20T10:41:18.741Z,75.48
2019-02-20T10:43:51.229Z,74.33
2019-02-20T10:46:22.577Z,74.13
2019-02-20T10:48:53.913Z,74.30
2019-02-20T10:51:25.337Z,74.73
2019-02-20T10:53:56.693Z,73.02
2019-02-20T10:56:28.032Z,73.08
2019-02-20T10:58:59.376Z,74.11
2019-02-20T11:01:30.817Z,73.99
2019-02-20T11:04:02.101Z,72.59
2019-02-20T11:06:33.699Z,72.00
2019-02-20T11:09:06.600Z,72.36
2019-02-20T11:11:39.534Z,71.61
2019-02-20T11:14:11.076Z,71.94
2019-02-20T11:16:42.423Z,69.76
2019-02-20T11:19:15.606Z,68.82
2019-02-20T11:21:46.782Z,67.70
2019-02-20T11:24:18.138Z,67.16
2019-02-20T11:26:54.282Z,66.68
2019-02-20T11:29:23.602Z,66.96
2019-02-20T11:31:56.509Z,66.17
2019-02-20T11:34:27.941Z,65.34
2019-02-20T11:36:59.219Z,65.65
2019-02-20T11:39:37.554Z,63.17
2019-02-20T11:42:03.776Z,64.10
2019-02-20T11:44:35.305Z,61.78
2019-02-20T11:47:06.723Z,61.19
2019-02-20T11:49:38.149Z,63.77
2019-02-20T11:52:09.430Z,62.39
2019-02-20T11:54:41.025Z,60.50
2019-02-20T11:57:13.940Z,60.96
2019-02-20T11:59:45.470Z,60.30
2019-02-20T12:02:16.754Z,59.67
2019-02-20T12:04:48.180Z,59.68
2019-02-20T12:07:19.610Z,59.23
2019-02-20T12:09:51.018Z,59.50
2019-02-20T12:12:22.467Z,58.48
2019-02-20T12:14:53.937Z,56.52
2019-02-20T12:17:25.291Z,56.28
2019-02-20T12:19:56.704Z,56.44
2019-02-20T12:22:28.255Z,58.99
2019-02-20T12:24:59.687Z,57.50
2019-02-20T12:27:31.020Z,55.71
2019-02-20T12:30:02.581Z,56.15
2019-02-20T12:32:35.685Z,53.84
2019-02-20T12:35:08.995Z,53.35
2019-02-20T12:37:40.516Z,53.47
2019-02-20T12:40:12.305Z,50.76
2019-02-20T12:42:43.601Z,50.81
2019-02-20T12:45:15.015Z,52.01
2019-02-20T12:47:46.451Z,52.68
2019-02-20T12:50:17.924Z,52.73
2019-02-20T12:52:49.211Z,50.81
2019-02-20T12:55:20.544Z,50.54
2019-02-20T12:57:51.912Z,51.34
2019-02-20T13:00:23.410Z,52.77
2019-02-20T13:02:54.753Z,52.25
2019-02-20T13:05:26.304Z,52.20
2019-02-20T13:07:57.555Z,51.88
2019-02-20T13:10:28.951Z,52.79
2019-02-20T13:13:00.299Z,52.43
2019-02-20T13:15:32.908Z,51.64
2019-02-20T13:18:04.326Z,53.40
2019-02-20T13:20:35.803Z,52.28
2019-02-20T13:23:07.164Z,51.56
2019-02-20T13:25:47.962Z,52.39
2019-02-20T13:28:19.247Z,49.96
2019-02-20T13:30:50.572Z,50.37
2019-02-20T13:33:21.841Z,50.46
2019-02-20T13:35:53.163Z,50.55
2019-02-20T13:38:24.525Z,53.05
2019-02-20T13:40:55.935Z,51.31
2019-02-20T13:43:27.489Z,51.21
2019-02-20T13:45:59.084Z,50.28
2019-02-20T13:48:30.594Z,50.19
2019-02-20T13:51:01.987Z,49.76
2019-02-20T13:53:33.718Z,51.52
2019-02-20T13:56:05.269Z,51.96
2019-02-20T13:58:37.170Z,50.91
2019-02-20T14:01:08.603Z,51.51
2019-02-20T14:03:42.358Z,51.11
2019-02-20T14:06:16.022Z,50.39
2019-02-20T14:08:47.694Z,52.70
2019-02-20T14:11:27.812Z,51.86
2019-02-20T14:13:59.274Z,52.09
2019-02-20T14:16:30.625Z,51.65
2019-02-20T14:19:03.107Z,52.16
2019-02-20T14:21:36.719Z,51.98
2019-02-20T14:24:08.269Z,51.89
2019-02-20T14:26:39.543Z,52.71
2019-02-20T14:29:11.945Z,53.22
2019-02-20T14:31:43.361Z,52.70
2019-02-20T14:34:15.004Z,53.59
2019-02-20T14:36:46.299Z,52.59
2019-02-20T14:39:17.695Z,52.37
2019-02-20T14:41:49.152Z,53.68
2019-02-20T14:44:20.633Z,53.83
2019-02-20T14:46:52.296Z,54.59
2019-02-20T14:49:23.634Z,53.86
2019-02-20T14:51:55.127Z,52.43
2019-02-20T14:54:45.770Z,53.21
2019-02-20T14:57:24.968Z,53.86
2019-02-20T14:59:56.390Z,54.37
2019-02-20T15:02:27.780Z,53.58
2019-02-20T15:04:59.133Z,53.75
2019-02-20T15:07:30.937Z,53.14
2019-02-20T15:10:02.787Z,53.08
2019-02-20T15:12:34.887Z,53.19
2019-02-20T15:15:12.560Z,53.56
2019-02-20T15:17:44.181Z,54.05
2019-02-20T15:20:15.913Z,54.19
2019-02-20T15:22:47.373Z,54.37
2019-02-20T15:25:18.710Z,54.07
2019-02-20T15:27:50.243Z,53.85
2019-02-20T15:30:21.751Z,53.90
2019-02-20T15:32:53.149Z,54.32
2019-02-20T15:35:24.632Z,53.13
2019-02-20T15:37:56.111Z,53.16
2019-02-20T15:40:37.806Z,52.88
2019-02-20T15:43:09.305Z,51.59
2019-02-20T15:45:42.304Z,51.20
2019-02-20T15:48:13.688Z,49.52
2019-02-20T15:50:45.059Z,48.83
2019-02-20T15:53:16.389Z,48.13
2019-02-20T15:55:47.819Z,48.34
2019-02-20T15:58:19.756Z,47.31
2019-02-20T16:00:50.351Z,48.11
2019-02-20T16:03:21.951Z,47.35
2019-02-20T16:05:54.390Z,47.81
2019-02-20T16:08:25.775Z,47.55
2019-02-20T16:10:57.125Z,48.84
2019-02-20T16:13:34.459Z,47.54
2019-02-20T16:16:06.070Z,48.87
2019-02-20T16:18:37.533Z,47.66
2019-02-20T16:21:10.099Z,47.90
2019-02-20T16:23:43.406Z,48.08
2019-02-20T16:26:14.989Z,48.50
2019-02-20T16:28:46.260Z,48.11
2019-02-20T16:31:19.336Z,48.88
2019-02-20T16:33:53.693Z,49.29
2019-02-20T16:36:25.769Z,49.92
2019-02-20T16:38:57.067Z,49.11
2019-02-20T16:41:28.467Z,49.81
2019-02-20T16:43:59.801Z,49.96
2019-02-20T16:46:32.274Z,49.95
2019-02-20T16:49:04.185Z,50.32
2019-02-20T16:51:40.616Z,50.37
2019-02-20T16:54:14.258Z,51.08
2019-02-20T16:56:45.690Z,52.04
2019-02-20T16:59:17.123Z,52.60
2019-02-20T17:01:49.150Z,52.44
2019-02-20T17:04:20.666Z,52.95
2019-02-20T17:06:53.820Z,52.43
2019-02-20T17:09:25.235Z,53.35
2019-02-20T17:11:58.868Z,53.36
2019-02-20T17:14:33.357Z,53.53
2019-02-20T17:17:04.885Z,53.33
2019-02-20T17:19:36.386Z,53.76
2019-02-20T17:22:16.494Z,54.30
2019-02-20T17:24:48.097Z,54.25
2019-02-20T17:27:31.856Z,54.79
2019-02-20T17:30:16.663Z,54.82
2019-02-20T17:32:50.514Z,54.75
2019-02-20T17:35:23.725Z,55.09
2019-02-20T17:37:55.237Z,55.46
2019-02-20T17:40:39.852Z,55.81
2019-02-20T17:43:11.832Z,55.93
2019-02-20T17:45:45.447Z,55.89
2019-02-20T17:48:19.130Z,56.18
2019-02-20T17:50:50.851Z,56.73
2019-02-20T17:53:22.296Z,56.70
2019-02-20T17:55:57.831Z,57.09
2019-02-20T17:58:30.438Z,57.39
2019-02-20T18:01:06.423Z,57.55
2019-02-20T18:03:37.955Z,57.85
2019-02-20T18:06:11.035Z,58.02
2019-02-20T18:08:42.577Z,58.19
2019-02-20T18:11:14.552Z,58.45
2019-02-20T18:13:46.159Z,58.40
2019-02-20T18:16:17.667Z,58.68
2019-02-20T18:18:49.095Z,58.84
2019-02-20T18:21:20.599Z,58.44
2019-02-20T18:23:52.168Z,58.96
2019-02-20T18:26:25.750Z,59.14
2019-02-20T18:28:57.656Z,59.25
2019-02-20T18:31:29.162Z,59.54
2019-02-20T18:34:03.080Z,59.74
2019-02-20T18:36:37.098Z,59.82
2019-02-20T18:39:08.775Z,59.79
2019-02-20T18:41:41.964Z,59.97
2019-02-20T18:44:16.310Z,60.17
2019-02-20T18:46:47.604Z,60.33
2019-02-20T18:49:21.242Z,60.80
2019-02-20T18:51:52.171Z,60.96
2019-02-20T18:54:23.834Z,60.99
2019-02-20T18:56:55.840Z,61.25
2019-02-20T18:59:27.187Z,61.42
2019-02-20T19:01:58.779Z,61.47
2019-02-20T19:04:30.294Z,61.93
2019-02-20T19:07:10.896Z,62.23
2019-02-20T19:09:46.869Z,62.57
2019-02-20T19:12:34.720Z,62.84
2019-02-20T19:15:37.799Z,62.86
2019-02-20T19:19:02.536Z,63.26
2019-02-20T19:21:54.223Z,63.74
2019-02-20T19:24:54.466Z,63.90
2019-02-20T19:28:01.113Z,63.78
2019-02-20T19:31:06.204Z,63.80
2019-02-20T19:33:51.158Z,63.95
2019-02-20T19:36:35.662Z,63.75
2019-02-20T19:39:33.694Z,64.11
2019-02-20T19:42:29.129Z,64.45
2019-02-20T19:45:33.858Z,64.65
2019-02-20T19:48:58.096Z,64.97
2019-02-20T19:51:58.150Z,65.46
2019-02-20T19:54:52.146Z,67.36
2019-02-20T19:57:40.616Z,68.94
2019-02-20T20:00:22.024Z,69.63
2019-02-20T20:03:01.455Z,69.71
2019-02-20T20:06:03.461Z,68.82
2019-02-20T20:08:57.989Z,69.36
2019-02-20T20:11:48.934Z,69.37
2019-02-20T20:14:36.956Z,70.21
2019-02-20T20:17:38.811Z,69.74
2019-02-20T20:20:32.713Z,69.90
2019-02-20T20:23:35.363Z,70.16
2019-02-20T20:26:40.017Z,71.33
2019-02-20T20:29:39.785Z,72.51
2019-02-20T20:32:19.074Z,71.54
2019-02-20T20:35:18.657Z,70.43
2019-02-20T20:37:57.446Z,72.60
2019-02-20T20:41:03.618Z,73.37
2019-02-20T20:43:57.694Z,73.84
2019-02-20T20:46:59.342Z,73.88
2019-02-20T20:49:41.695Z,74.36
2019-02-20T20:52:50.945Z,73.68
2019-02-20T20:55:49.378Z,73.08
2019-02-20T20:58:33.945Z,73.48
2019-02-20T21:01:15.473Z,74.48
2019-02-20T21:04:20.316Z,74.70
2019-02-20T21:07:17.258Z,74.50
2019-02-20T21:09:59.136Z,74.46
2019-02-20T21:12:49.869Z,74.41
2019-02-20T21:15:34.091Z,74.70
2019-02-20T21:18:52.523Z,74.66
2019-02-20T21:21:47.645Z,74.58
2019-02-20T21:24:49.513Z,75.36
2019-02-20T21:27:47.247Z,75.36
2019-02-20T21:30:28.866Z,75.79
2019-02-20T21:33:44.575Z,76.20
2019-02-20T21:36:28.892Z,76.25
2019-02-20T21:39:28.786Z,76.19
2019-02-20T21:42:29.225Z,76.46
2019-02-20T21:45:17.146Z,76.71
2019-02-20T21:48:10.988Z,77.06
2019-02-20T21:51:20.252Z,77.83
2019-02-20T21:54:04.994Z,78.10
2019-02-20T21:56:55.875Z,77.83
2019-02-20T21:59:43.822Z,77.74
2019-02-20T22:02:28.828Z,77.64
2019-02-20T22:05:19.735Z,77.68
2019-02-20T22:08:15.634Z,77.81
2019-02-20T22:11:11.287Z,77.90
2019-02-20T22:14:06.817Z,78.05
2019-02-20T22:16:45.682Z,77.96
2019-02-20T22:19:39.394Z,78.33
2019-02-20T22:22:33.455Z,78.05
2019-02-20T22:25:30.289Z,78.21
2019-02-20T22:28:33.920Z,78.41
2019-02-20T22:31:25.536Z,78.45
2019-02-20T22:34:19.448Z,78.42
2019-02-20T22:37:12.643Z,78.62
2019-02-20T22:40:15.866Z,78.92
2019-02-20T22:43:20.458Z,79.10
2019-02-20T22:46:20.385Z,79.04
2019-02-20T22:49:01.967Z,78.73
2019-02-20T22:52:05.048Z,78.92
2019-02-20T22:54:59.104Z,78.86
2019-02-20T22:57:59.320Z,78.94
2019-02-20T23:01:17.788Z,79.30
2019-02-20T23:04:15.642Z,79.06
2019-02-20T23:07:01.293Z,79.86
2019-02-20T23:09:46.239Z,79.06
2019-02-20T23:12:45.467Z,79.86
2019-02-20T23:15:16.937Z,80.30
2019-02-20T23:17:48.267Z,80.58
2019-02-20T23:20:19.663Z,79.71
2019-02-20T23:22:50.937Z,79.80
2019-02-20T23:25:22.243Z,78.75
2019-02-20T23:27:53.762Z,80.45
2019-02-20T23:30:25.093Z,80.42
2019-02-20T23:32:56.494Z,80.65
2019-02-20T23:35:28.631Z,80.28
2019-02-20T23:37:59.941Z,79.82
2019-02-20T23:40:31.220Z,79.62
2019-02-20T23:43:02.615Z,79.48
2019-02-20T23:45:33.968Z,79.41
2019-02-20T23:48:05.374Z,79.64
2019-02-20T23:50:38.112Z,78.96
2019-02-20T23:53:09.466Z,79.49
2019-02-20T23:55:40.780Z,79.41
2019-02-20T23:58:12.131Z,79.63
